createdAt,value
2018-07-21T00:02:18.506Z,19.50
2018-07-21T00:04:47.803Z,19.60
2018-07-21T00:07:17.172Z,19.60
2018-07-21T00:09:46.515Z,19.40
2018-07-21T00:12:16.060Z,19.30
2018-07-21T00:14:45.426Z,19.30
2018-07-21T00:17:14.789Z,19.00
2018-07-21T00:19:44.142Z,18.90
2018-07-21T00:22:13.466Z,18.90
2018-07-21T00:24:42.854Z,18.90
2018-07-21T00:27:12.198Z,19.00
2018-07-21T00:29:41.561Z,19.10
2018-07-21T00:32:10.920Z,19.10
2018-07-21T00:34:40.286Z,18.90
2018-07-21T00:37:09.610Z,18.80
2018-07-21T00:39:38.957Z,18.70
2018-07-21T00:42:08.422Z,18.60
2018-07-21T00:44:37.761Z,18.70
2018-07-21T00:47:07.128Z,18.60
2018-07-21T00:49:49.215Z,18.70
2018-07-21T00:52:18.662Z,18.50
2018-07-21T00:54:47.978Z,18.60
2018-07-21T00:57:17.337Z,18.40
2018-07-21T00:59:46.646Z,18.10
2018-07-21T01:02:16.196Z,18.30
2018-07-21T01:04:45.555Z,18.10
2018-07-21T01:07:14.866Z,18.00
2018-07-21T01:09:44.206Z,18.40
2018-07-21T01:12:13.559Z,18.50
2018-07-21T01:14:42.887Z,18.30
2018-07-21T01:17:12.317Z,18.30
2018-07-21T01:19:41.697Z,18.20
2018-07-21T01:22:11.088Z,18.10
2018-07-21T01:24:40.426Z,17.80
2018-07-21T01:27:09.788Z,17.60
2018-07-21T01:29:39.223Z,17.80
2018-07-21T01:32:08.575Z,17.90
2018-07-21T01:34:37.899Z,17.90
2018-07-21T01:37:07.224Z,18.10
2018-07-21T01:39:36.511Z,18.10
2018-07-21T01:42:05.893Z,17.90
2018-07-21T01:44:35.227Z,17.90
2018-07-21T01:47:04.579Z,17.60
2018-07-21T01:49:33.931Z,17.70
2018-07-21T01:52:03.292Z,17.80
2018-07-21T01:54:32.619Z,17.90
2018-07-21T01:57:01.947Z,17.70
2018-07-21T01:59:31.266Z,17.80
2018-07-21T02:02:00.691Z,17.70
2018-07-21T02:04:30.021Z,17.80
2018-07-21T02:06:59.371Z,17.70
2018-07-21T02:09:28.723Z,17.60
2018-07-21T02:11:58.106Z,17.50
2018-07-21T02:14:27.456Z,17.40
2018-07-21T02:16:56.778Z,17.20
2018-07-21T02:19:26.288Z,17.10
2018-07-21T02:21:55.674Z,17.40
2018-07-21T02:24:25.142Z,17.50
2018-07-21T02:26:54.474Z,17.50
2018-07-21T02:29:23.825Z,17.30
2018-07-21T02:31:53.167Z,16.90
2018-07-21T02:34:22.535Z,17.00
2018-07-21T02:36:51.886Z,17.10
2018-07-21T02:39:21.262Z,17.00
2018-07-21T02:41:50.570Z,17.20
2018-07-21T02:44:19.923Z,17.00
2018-07-21T02:46:49.234Z,16.90
2018-07-21T02:49:18.582Z,16.80
2018-07-21T02:54:16.803Z,16.80
2018-07-21T02:56:46.125Z,16.80
2018-07-21T02:59:15.466Z,16.80
2018-07-21T03:01:44.807Z,16.80
2018-07-21T03:04:14.136Z,16.70
2018-07-21T03:06:43.488Z,16.70
2018-07-21T03:09:13.403Z,16.60
2018-07-21T03:11:42.743Z,16.40
2018-07-21T03:14:12.084Z,16.00
2018-07-21T03:16:41.435Z,15.80
2018-07-21T03:19:10.859Z,16.10
2018-07-21T03:21:40.251Z,16.20
2018-07-21T03:24:09.699Z,16.20
2018-07-21T03:26:39.146Z,16.00
2018-07-21T03:29:08.468Z,16.10
2018-07-21T03:31:38.793Z,16.00
2018-07-21T03:34:08.145Z,16.20
2018-07-21T03:36:37.502Z,16.30
2018-07-21T03:39:09.692Z,15.40
2018-07-21T03:41:39.169Z,15.70
2018-07-21T03:44:08.509Z,15.60
2018-07-21T03:46:37.833Z,15.50
2018-07-21T03:49:07.183Z,15.60
2018-07-21T03:51:36.515Z,15.80
2018-07-21T03:54:05.904Z,16.00
2018-07-21T03:56:35.247Z,16.20
2018-07-21T03:59:04.840Z,16.30
2018-07-21T04:01:34.216Z,16.40
2018-07-21T04:04:03.655Z,16.30
2018-07-21T04:06:33.011Z,16.30
2018-07-21T04:09:03.973Z,16.20
2018-07-21T04:11:33.288Z,16.10
2018-07-21T04:14:02.633Z,16.20
2018-07-21T04:16:32.127Z,16.00
2018-07-21T04:19:01.541Z,16.00
2018-07-21T04:21:30.958Z,16.00
2018-07-21T04:24:00.311Z,16.20
2018-07-21T04:26:29.718Z,16.20
2018-07-21T04:28:59.216Z,16.20
2018-07-21T04:31:28.562Z,16.30
2018-07-21T04:33:57.999Z,16.40
2018-07-21T04:36:27.496Z,16.60
2018-07-21T04:38:56.915Z,16.60
2018-07-21T04:41:26.280Z,16.70
2018-07-21T04:43:55.628Z,16.70
2018-07-21T04:46:24.953Z,16.80
2018-07-21T04:48:54.288Z,16.80
2018-07-21T04:51:23.702Z,16.90
2018-07-21T04:53:53.048Z,16.70
2018-07-21T04:56:22.403Z,16.60
2018-07-21T04:58:51.748Z,16.70
2018-07-21T05:03:49.989Z,17.00
2018-07-21T05:06:19.383Z,17.20
2018-07-21T05:08:48.790Z,17.40
2018-07-21T05:11:18.179Z,17.40
2018-07-21T05:13:47.516Z,17.40
2018-07-21T05:16:16.902Z,17.50
2018-07-21T05:18:46.352Z,17.70
2018-07-21T05:21:15.720Z,17.60
2018-07-21T05:23:45.071Z,17.50
2018-07-21T05:26:14.424Z,17.50
2018-07-21T05:28:43.754Z,17.60
2018-07-21T05:31:13.122Z,17.60
2018-07-21T05:33:42.444Z,17.60
2018-07-21T05:36:11.818Z,17.60
2018-07-21T05:38:41.245Z,17.50
2018-07-21T05:41:10.812Z,17.60
2018-07-21T05:43:40.360Z,17.70
2018-07-21T05:46:09.853Z,18.00
2018-07-21T05:48:39.207Z,17.90
2018-07-21T05:51:08.587Z,18.20
2018-07-21T05:53:38.104Z,18.40
2018-07-21T05:58:36.500Z,18.30
2018-07-21T06:03:35.031Z,18.30
2018-07-21T06:06:04.487Z,18.50
2018-07-21T06:08:33.925Z,18.60
2018-07-21T06:11:03.316Z,18.60
2018-07-21T06:13:32.787Z,18.60
2018-07-21T06:16:02.167Z,18.60
2018-07-21T06:18:31.615Z,18.80
2018-07-21T06:21:00.987Z,19.00
2018-07-21T06:23:30.404Z,19.00
2018-07-21T06:25:59.832Z,19.00
2018-07-21T06:28:29.204Z,19.10
2018-07-21T06:30:58.591Z,19.20
2018-07-21T06:33:27.962Z,18.90
2018-07-21T06:35:57.418Z,19.00
2018-07-21T06:38:26.819Z,19.10
2018-07-21T06:40:56.218Z,19.20
2018-07-21T06:43:25.771Z,19.30
2018-07-21T06:45:55.181Z,19.30
2018-07-21T06:48:24.540Z,19.30
2018-07-21T06:50:53.859Z,19.20
2018-07-21T06:53:23.234Z,19.30
2018-07-21T06:55:52.583Z,19.40
2018-07-21T06:58:21.934Z,19.40
2018-07-21T07:00:51.339Z,19.50
2018-07-21T07:03:20.703Z,19.80
2018-07-21T07:05:50.142Z,19.80
2018-07-21T07:08:19.495Z,19.80
2018-07-21T07:10:48.850Z,19.90
2018-07-21T07:13:18.222Z,20.10
2018-07-21T07:15:47.586Z,20.30
2018-07-21T07:18:16.955Z,20.50
2018-07-21T07:20:46.422Z,20.50
2018-07-21T07:23:15.881Z,20.60
2018-07-21T07:25:45.291Z,20.60
2018-07-21T07:28:14.659Z,20.80
2018-07-21T07:30:44.062Z,20.90
2018-07-21T07:33:13.424Z,21.00
2018-07-21T07:35:42.776Z,20.90
2018-07-21T07:38:12.144Z,20.90
2018-07-21T07:40:41.504Z,21.00
2018-07-21T07:43:10.864Z,21.10
2018-07-21T07:45:40.343Z,21.10
2018-07-21T07:48:09.708Z,21.10
2018-07-21T07:50:39.178Z,21.20
2018-07-21T07:53:08.587Z,21.30
2018-07-21T07:55:38.022Z,21.40
2018-07-21T07:58:07.383Z,21.30
2018-07-21T08:00:36.758Z,21.50
2018-07-21T08:03:06.239Z,21.50
2018-07-21T08:05:35.645Z,21.50
2018-07-21T08:08:05.018Z,21.60
2018-07-21T08:10:34.351Z,21.70
2018-07-21T08:15:32.624Z,21.70
2018-07-21T08:18:01.946Z,21.80
2018-07-21T08:20:31.315Z,21.80
2018-07-21T08:23:00.692Z,21.70
2018-07-21T08:25:30.045Z,21.70
2018-07-21T08:27:59.427Z,21.70
2018-07-21T08:30:28.771Z,21.60
2018-07-21T08:32:58.163Z,21.70
2018-07-21T08:35:27.488Z,21.90
2018-07-21T08:37:56.859Z,21.90
2018-07-21T08:40:26.175Z,21.90
2018-07-21T08:42:55.534Z,21.90
2018-07-21T08:45:24.883Z,22.00
2018-07-21T08:47:54.223Z,22.00
2018-07-21T08:50:23.661Z,22.20
2018-07-21T08:52:53.010Z,22.40
2018-07-21T08:55:22.355Z,22.50
2018-07-21T08:57:51.687Z,22.40
2018-07-21T09:00:21.026Z,22.60
2018-07-21T09:02:50.487Z,22.60
2018-07-21T09:05:19.798Z,22.70
2018-07-21T09:07:49.149Z,22.70
2018-07-21T09:10:18.540Z,22.70
2018-07-21T09:12:47.978Z,22.80
2018-07-21T09:15:17.362Z,22.90
2018-07-21T09:17:46.722Z,23.00
2018-07-21T09:20:16.197Z,23.00
2018-07-21T09:25:14.409Z,23.00
2018-07-21T09:27:43.879Z,23.20
2018-07-21T09:30:13.228Z,23.20
2018-07-21T09:32:42.564Z,23.30
2018-07-21T09:35:11.899Z,23.30
2018-07-21T09:40:10.215Z,23.50
2018-07-21T09:42:39.558Z,23.40
2018-07-21T09:45:08.952Z,23.40
2018-07-21T09:47:38.291Z,23.60
2018-07-21T09:50:08.270Z,23.80
2018-07-21T09:52:38.011Z,24.00
2018-07-21T09:55:08.245Z,24.00
2018-07-21T09:57:37.867Z,23.90
2018-07-21T10:00:09.575Z,24.10
2018-07-21T10:02:38.913Z,24.20
2018-07-21T10:05:08.258Z,24.30
2018-07-21T10:07:37.622Z,24.20
2018-07-21T10:10:07.075Z,24.10
2018-07-21T10:12:36.523Z,24.20
2018-07-21T10:15:06.398Z,24.20
2018-07-21T10:17:35.793Z,24.30
2018-07-21T10:20:05.613Z,24.40
2018-07-21T10:22:34.970Z,24.50
2018-07-21T10:25:09.703Z,24.60
2018-07-21T10:27:44.642Z,24.40
2018-07-21T10:30:14.014Z,24.40
2018-07-21T10:32:43.398Z,24.40
2018-07-21T10:35:12.749Z,24.40
2018-07-21T10:37:42.222Z,24.40
2018-07-21T10:40:11.575Z,24.50
2018-07-21T10:42:41.028Z,24.50
2018-07-21T10:45:10.386Z,24.30
2018-07-21T10:47:39.792Z,24.40
2018-07-21T10:50:09.298Z,24.20
2018-07-21T10:52:38.852Z,24.40
2018-07-21T10:55:08.274Z,24.50
2018-07-21T10:57:37.798Z,24.60
2018-07-21T11:00:07.637Z,24.60
2018-07-21T11:02:37.008Z,24.60
2018-07-21T11:05:07.495Z,24.70
2018-07-21T11:07:36.964Z,24.80
2018-07-21T11:10:07.425Z,24.80
2018-07-21T11:12:36.774Z,24.40
2018-07-21T11:15:07.570Z,23.90
2018-07-21T11:17:37.391Z,24.30
2018-07-21T11:20:07.112Z,24.50
2018-07-21T11:22:36.914Z,24.50
2018-07-21T11:25:07.321Z,24.60
2018-07-21T11:27:37.171Z,24.60
2018-07-21T11:30:07.294Z,24.60
2018-07-21T11:32:36.788Z,24.50
2018-07-21T11:35:06.143Z,24.60
2018-07-21T11:37:35.554Z,24.70
2018-07-21T11:40:05.370Z,24.30
2018-07-21T11:42:34.908Z,24.50
2018-07-21T11:45:04.618Z,24.60
2018-07-21T11:50:02.939Z,24.40
2018-07-21T11:52:32.283Z,24.10
2018-07-21T11:55:01.631Z,23.70
2018-07-21T11:57:31.015Z,24.10
2018-07-21T12:00:00.351Z,24.20
2018-07-21T12:02:29.706Z,24.50
2018-07-21T12:04:59.069Z,24.60
2018-07-21T12:07:28.445Z,24.70
2018-07-21T12:09:57.901Z,24.60
2018-07-21T12:12:27.217Z,24.50
2018-07-21T12:14:56.577Z,24.60
2018-07-21T12:17:25.935Z,24.40
2018-07-21T12:19:55.291Z,24.20
2018-07-21T12:22:24.705Z,24.40
2018-07-21T12:24:54.168Z,24.60
2018-07-21T12:27:23.547Z,24.60
2018-07-21T12:29:52.895Z,23.80
2018-07-21T12:32:22.381Z,23.90
2018-07-21T12:34:51.814Z,23.30
2018-07-21T12:37:21.202Z,23.40
2018-07-21T12:39:50.547Z,23.60
2018-07-21T12:42:19.866Z,23.50
2018-07-21T12:44:49.310Z,23.40
2018-07-21T12:47:18.679Z,22.70
2018-07-21T12:49:47.974Z,22.90
2018-07-21T12:52:17.353Z,22.60
2018-07-21T12:54:46.748Z,22.50
2018-07-21T12:57:16.078Z,22.40
2018-07-21T12:59:45.509Z,22.80
2018-07-21T13:02:14.854Z,22.90
2018-07-21T13:04:44.253Z,22.70
2018-07-21T13:07:13.549Z,22.60
2018-07-21T13:09:43.003Z,22.60
2018-07-21T13:12:12.325Z,22.40
2018-07-21T13:14:41.659Z,22.20
2018-07-21T13:17:11.068Z,22.10
2018-07-21T13:19:40.474Z,22.00
2018-07-21T13:22:09.912Z,22.30
2018-07-21T13:24:39.278Z,22.00
2018-07-21T13:27:08.723Z,21.60
2018-07-21T13:29:38.038Z,21.20
2018-07-21T13:32:07.502Z,21.40
2018-07-21T13:34:36.907Z,21.20
2018-07-21T13:37:06.332Z,20.70
2018-07-21T13:39:35.615Z,20.80
2018-07-21T13:42:04.958Z,20.70
2018-07-21T13:44:34.331Z,20.60
2018-07-21T13:47:03.685Z,20.70
2018-07-21T13:49:33.066Z,21.00
2018-07-21T13:52:02.484Z,20.80
2018-07-21T13:54:31.879Z,20.30
2018-07-21T13:57:01.336Z,20.60
2018-07-21T13:59:30.677Z,20.80
2018-07-21T14:02:00.091Z,20.40
2018-07-21T14:04:29.506Z,20.90
2018-07-21T14:06:58.978Z,21.00
2018-07-21T14:09:28.329Z,21.00
2018-07-21T14:11:57.718Z,21.20
2018-07-21T14:14:27.063Z,21.50
2018-07-21T14:16:56.497Z,21.30
2018-07-21T14:19:25.868Z,21.10
2018-07-21T14:21:55.779Z,21.10
2018-07-21T14:24:25.503Z,20.70
2018-07-21T14:26:54.888Z,20.80
2018-07-21T14:29:24.294Z,20.80
2018-07-21T14:31:53.748Z,20.80
2018-07-21T14:34:23.130Z,20.50
2018-07-21T14:36:52.532Z,20.80
2018-07-21T14:39:21.922Z,20.90
2018-07-21T14:41:51.309Z,20.60
2018-07-21T14:44:20.626Z,20.80
2018-07-21T14:46:50.100Z,20.90
2018-07-21T14:49:19.469Z,20.70
2018-07-21T14:51:48.806Z,20.90
2018-07-21T14:54:18.227Z,20.60
2018-07-21T14:56:47.596Z,20.70
2018-07-21T14:59:16.988Z,21.30
2018-07-21T15:01:46.505Z,20.80
2018-07-21T15:04:15.896Z,21.10
2018-07-21T15:06:45.245Z,21.00
2018-07-21T15:09:14.582Z,20.90
2018-07-21T15:11:43.958Z,21.20
2018-07-21T15:14:14.426Z,21.20
2018-07-21T15:16:43.806Z,21.10
2018-07-21T15:19:13.267Z,21.50
2018-07-21T15:21:42.643Z,21.40
2018-07-21T15:24:12.069Z,21.40
2018-07-21T15:26:41.460Z,21.40
2018-07-21T15:29:10.934Z,21.00
2018-07-21T15:31:40.288Z,21.40
2018-07-21T15:34:09.670Z,21.10
2018-07-21T15:36:39.001Z,21.10
2018-07-21T15:39:09.029Z,21.30
2018-07-21T15:41:38.404Z,21.60
2018-07-21T15:44:07.926Z,21.50
2018-07-21T15:46:37.294Z,21.70
2018-07-21T15:49:06.666Z,21.10
2018-07-21T15:51:36.965Z,20.90
2018-07-21T15:54:06.381Z,21.10
2018-07-21T15:56:35.798Z,20.90
2018-07-21T15:59:05.210Z,20.90
2018-07-21T16:01:34.589Z,20.90
2018-07-21T16:04:03.949Z,21.00
2018-07-21T16:06:33.276Z,21.30
2018-07-21T16:09:05.023Z,21.10
2018-07-21T16:11:34.385Z,21.10
2018-07-21T16:14:03.794Z,21.10
2018-07-21T16:16:33.272Z,21.10
2018-07-21T16:19:03.739Z,21.20
2018-07-21T16:21:33.116Z,21.20
2018-07-21T16:24:02.520Z,21.20
2018-07-21T16:26:31.920Z,21.10
2018-07-21T16:29:01.340Z,21.20
2018-07-21T16:31:30.761Z,21.10
2018-07-21T16:34:00.123Z,21.10
2018-07-21T16:36:29.466Z,21.00
2018-07-21T16:41:27.711Z,21.20
2018-07-21T16:43:57.117Z,21.20
2018-07-21T16:46:26.521Z,21.30
2018-07-21T16:48:55.952Z,21.00
2018-07-21T16:51:25.266Z,21.00
2018-07-21T16:56:23.536Z,21.10
2018-07-21T16:58:52.886Z,21.30
2018-07-21T17:01:22.217Z,21.00
2018-07-21T17:03:51.569Z,21.20
2018-07-21T17:06:20.886Z,21.00
2018-07-21T17:08:50.247Z,20.90
2018-07-21T17:11:19.570Z,21.20
2018-07-21T17:13:48.919Z,21.00
2018-07-21T17:16:18.298Z,21.00
2018-07-21T17:18:47.669Z,21.20
2018-07-21T17:21:17.036Z,20.90
2018-07-21T17:23:46.441Z,20.90
2018-07-21T17:26:15.752Z,21.20
2018-07-21T17:28:45.200Z,20.80
2018-07-21T17:31:14.547Z,20.80
2018-07-21T17:33:43.916Z,20.60
2018-07-21T17:36:13.286Z,20.70
2018-07-21T17:38:43.304Z,20.60
2018-07-21T17:41:12.760Z,20.70
2018-07-21T17:43:42.092Z,20.70
2018-07-21T17:46:11.443Z,20.60
2018-07-21T17:48:40.771Z,20.50
2018-07-21T17:51:10.228Z,20.60
2018-07-21T17:53:40.127Z,20.80
2018-07-21T17:56:09.550Z,20.80
2018-07-21T17:58:39.663Z,20.60
2018-07-21T18:01:09.019Z,20.50
2018-07-21T18:03:38.370Z,20.60
2018-07-21T18:06:08.298Z,21.00
2018-07-21T18:08:37.753Z,20.90
2018-07-21T18:11:07.235Z,20.80
2018-07-21T18:13:36.694Z,21.20
2018-07-21T18:18:34.963Z,21.30
2018-07-21T18:21:04.329Z,21.40
2018-07-21T18:23:33.858Z,21.50
2018-07-21T18:26:03.385Z,21.60
2018-07-21T18:28:32.743Z,21.60
2018-07-21T18:31:02.113Z,21.50
2018-07-21T18:33:31.523Z,21.60
2018-07-21T18:36:00.868Z,21.50
2018-07-21T18:38:30.301Z,21.50
2018-07-21T18:40:59.766Z,21.60
2018-07-21T18:43:29.099Z,21.60
2018-07-21T18:45:58.449Z,21.50
2018-07-21T18:48:27.900Z,21.50
2018-07-21T18:50:57.904Z,21.60
2018-07-21T18:53:27.296Z,21.50
2018-07-21T18:55:56.642Z,21.40
2018-07-21T18:58:26.045Z,21.00
2018-07-21T19:00:55.400Z,20.70
2018-07-21T19:03:25.029Z,20.50
2018-07-21T19:05:54.446Z,20.30
2018-07-21T19:08:24.934Z,20.10
2018-07-21T19:10:54.750Z,20.40
2018-07-21T19:13:24.186Z,20.60
2018-07-21T19:15:58.920Z,20.70
2018-07-21T19:18:28.263Z,20.70
2018-07-21T19:21:02.956Z,20.50
2018-07-21T19:23:32.267Z,20.60
2018-07-21T19:26:06.804Z,20.50
2018-07-21T19:31:05.297Z,20.50
2018-07-21T19:33:34.607Z,20.70
2018-07-21T19:36:04.110Z,20.80
2018-07-21T19:38:33.442Z,20.80
2018-07-21T19:41:08.173Z,20.80
2018-07-21T19:43:37.780Z,20.90
2018-07-21T19:46:07.156Z,20.80
2018-07-21T19:48:37.050Z,20.80
2018-07-21T19:51:07.112Z,20.90
2018-07-21T19:53:36.402Z,20.90
2018-07-21T19:56:05.820Z,20.90
2018-07-21T19:58:35.286Z,21.00
2018-07-21T20:03:33.634Z,20.80
2018-07-21T20:06:03.050Z,20.70
2018-07-21T20:08:32.543Z,20.60
2018-07-21T20:11:01.902Z,20.50
2018-07-21T20:16:00.339Z,20.80
2018-07-21T20:18:29.718Z,20.70
2018-07-21T20:20:59.264Z,20.70
2018-07-21T20:23:28.527Z,20.70
2018-07-21T20:25:57.907Z,20.50
2018-07-21T20:28:27.218Z,20.40
2018-07-21T20:30:56.661Z,20.50
2018-07-21T20:33:26.082Z,20.30
2018-07-21T20:35:55.445Z,20.50
2018-07-21T20:38:24.880Z,20.60
2018-07-21T20:40:54.264Z,20.50
2018-07-21T20:43:23.724Z,20.60
2018-07-21T20:45:53.065Z,20.70
2018-07-21T20:48:22.515Z,20.80
2018-07-21T20:50:51.872Z,20.80
2018-07-21T20:53:21.327Z,20.80
2018-07-21T20:55:50.733Z,20.80
2018-07-21T21:00:48.995Z,20.60
2018-07-21T21:03:19.431Z,20.70
2018-07-21T21:05:48.789Z,20.70
2018-07-21T21:08:18.251Z,20.60
2018-07-21T21:10:47.575Z,20.60
2018-07-21T21:13:17.068Z,20.70
2018-07-21T21:15:46.412Z,20.60
2018-07-21T21:18:15.759Z,20.60
2018-07-21T21:20:45.123Z,20.60
2018-07-21T21:23:14.498Z,20.50
2018-07-21T21:25:43.852Z,20.50
2018-07-21T21:28:13.251Z,20.50
2018-07-21T21:30:42.627Z,20.60
2018-07-21T21:33:11.978Z,20.60
2018-07-21T21:35:41.310Z,20.50
2018-07-21T21:38:10.774Z,20.40
2018-07-21T21:40:40.184Z,20.40
2018-07-21T21:43:09.511Z,20.40
2018-07-21T21:45:38.870Z,20.40
2018-07-21T21:48:08.253Z,20.30
2018-07-21T21:50:37.604Z,20.40
2018-07-21T21:53:07.050Z,20.40
2018-07-21T21:55:36.402Z,20.50
2018-07-21T21:58:06.198Z,20.50
2018-07-21T22:01:17.474Z,20.40
2018-07-21T22:03:46.801Z,20.40
2018-07-21T22:06:16.166Z,20.20
2018-07-21T22:08:45.539Z,20.30
2018-07-21T22:11:14.880Z,20.40
2018-07-21T22:13:44.268Z,20.40
2018-07-21T22:16:13.695Z,20.30
2018-07-21T22:18:43.016Z,20.40
2018-07-21T22:21:12.437Z,20.40
2018-07-21T22:23:41.906Z,20.40
2018-07-21T22:26:11.312Z,20.40
2018-07-21T22:28:40.757Z,20.30
2018-07-21T22:31:10.163Z,20.40
2018-07-21T22:33:39.659Z,20.30
2018-07-21T22:36:09.020Z,20.20
2018-07-21T22:38:38.390Z,20.20
2018-07-21T22:41:07.760Z,20.20
2018-07-21T22:43:37.099Z,20.10
2018-07-21T22:46:06.428Z,20.10
2018-07-21T22:48:35.781Z,19.90
2018-07-21T22:51:05.120Z,20.00
2018-07-21T22:53:34.478Z,19.90
2018-07-21T22:56:03.971Z,19.80
2018-07-21T22:58:33.310Z,19.80
2018-07-21T23:01:02.848Z,20.00
2018-07-21T23:03:32.231Z,20.10
2018-07-21T23:06:01.551Z,20.10
2018-07-21T23:08:30.974Z,20.10
2018-07-21T23:11:00.297Z,20.00
2018-07-21T23:13:29.680Z,20.10
2018-07-21T23:18:27.874Z,20.00
2018-07-21T23:20:57.194Z,19.70
2018-07-21T23:23:26.566Z,19.70
2018-07-21T23:25:55.897Z,19.80
2018-07-21T23:28:25.265Z,19.80
2018-07-21T23:30:54.633Z,19.90
2018-07-21T23:33:23.974Z,20.00
2018-07-21T23:35:53.322Z,19.80
2018-07-21T23:38:22.654Z,19.70
2018-07-21T23:40:52.050Z,19.70
2018-07-21T23:43:21.371Z,19.70
2018-07-21T23:45:50.810Z,19.80
2018-07-21T23:48:20.134Z,19.70
2018-07-21T23:50:49.471Z,19.80
2018-07-21T23:53:18.868Z,19.80
2018-07-21T23:55:48.222Z,19.80
2018-07-21T23:58:17.540Z,19.70
